Time;durP1;ratioP1;P1;durP2;ratioP2;P2;SDS_P1;SDS_P2;PMS_P1;PMS_P2;Temp;Humidity;BMP_temperature;BMP_pressure;BME280_temperature;BME280_humidity;BME280_pressure;Samples;Min_cycle;Max_cycle;Signal;HPM_P1;HPM_P2
2022/01/15 00:01:53;;;;;;;63.30;46.97;;;6.10;99.90;;;;;;5032730;28;20441;-86
2022/01/15 00:04:26;;;;;;;57.50;38.77;;;6.00;99.90;;;;;;5033083;28;20673;-85
2022/01/15 00:06:55;;;;;;;53.60;36.80;;;5.80;99.90;;;;;;5033331;28;20376;-86
2022/01/15 00:09:24;;;;;;;57.77;37.17;;;5.80;99.90;;;;;;5032884;28;20199;-84
2022/01/15 00:11:58;;;;;;;51.30;35.53;;;5.50;99.90;;;;;;5033159;28;20666;-85
2022/01/15 00:14:30;;;;;;;54.77;35.57;;;5.70;99.90;;;;;;5033408;28;20256;-88
2022/01/15 00:17:05;;;;;;;55.17;36.73;;;5.90;99.90;;;;;;5033014;28;20207;-87
2022/01/15 00:19:41;;;;;;;53.57;35.87;;;6.10;99.90;;;;;;5033355;28;20206;-85
2022/01/15 00:22:16;;;;;;;55.33;37.00;;;6.00;99.90;;;;;;5033055;28;20709;-88
2022/01/15 00:24:46;;;;;;;53.60;36.97;;;5.70;99.90;;;;;;5033077;28;20206;-85
2022/01/15 00:27:17;;;;;;;60.43;37.40;;;5.90;99.90;;;;;;5033124;28;20212;-87
2022/01/15 00:29:45;;;;;;;55.70;37.77;;;6.00;99.90;;;;;;5033076;28;20195;-85
2022/01/15 00:32:13;;;;;;;60.53;36.70;;;6.00;99.90;;;;;;5015174;28;20235;-85
2022/01/15 00:34:40;;;;;;;55.70;37.27;;;6.10;99.90;;;;;;5033230;28;20207;-86
2022/01/15 00:37:08;;;;;;;54.90;36.63;;;6.20;99.90;;;;;;5032865;28;20198;-85
2022/01/15 00:39:36;;;;;;;61.13;37.70;;;6.30;99.90;;;;;;5043341;28;20571;-84
2022/01/15 00:42:08;;;;;;;66.27;48.03;;;6.30;99.90;;;;;;5052195;28;20438;-85
2022/01/15 00:44:40;;;;;;;63.97;39.93;;;6.40;99.90;;;;;;5053161;28;20280;-83
2022/01/15 00:47:07;;;;;;;60.10;37.93;;;6.20;99.90;;;;;;5052830;28;20277;-83
2022/01/15 00:49:34;;;;;;;55.57;39.00;;;6.30;99.90;;;;;;5052525;28;20203;-88
2022/01/15 00:52:02;;;;;;;57.87;36.33;;;6.20;99.90;;;;;;5053123;28;20578;-85
2022/01/15 00:54:29;;;;;;;61.80;37.50;;;6.10;99.90;;;;;;5056131;28;20200;-85
2022/01/15 00:56:57;;;;;;;56.60;36.47;;;6.20;99.90;;;;;;5038751;28;20202;-83
2022/01/15 00:59:24;;;;;;;63.47;37.00;;;5.90;99.90;;;;;;5056079;28;20214;-85
2022/01/15 01:01:54;;;;;;;57.17;38.83;;;5.80;99.90;;;;;;5056675;28;20834;-84
2022/01/15 01:04:27;;;;;;;63.53;38.93;;;5.90;99.90;;;;;;5056396;28;20210;-83
2022/01/15 01:06:55;;;;;;;61.83;38.43;;;5.80;99.90;;;;;;5024509;28;20568;-86
2022/01/15 01:09:27;;;;;;;58.17;37.37;;;5.80;99.90;;;;;;5035982;28;20203;-85
2022/01/15 01:12:09;;;;;;;64.07;38.00;;;5.90;99.90;;;;;;5035401;28;20571;-84
2022/01/15 01:20:10;;;;;;;57.20;37.40;;;5.80;99.90;;;;;;5035989;28;20186;-88
2022/01/15 01:22:55;;;;;;;53.60;35.30;;;5.70;99.90;;;;;;5035626;28;20191;-86
2022/01/15 01:25:29;;;;;;;54.50;35.57;;;5.80;99.90;;;;;;5035750;28;20297;-86
2022/01/15 01:28:06;;;;;;;58.93;35.60;;;5.50;99.90;;;;;;5035746;28;20207;-85
2022/01/15 01:30:38;;;;;;;58.17;36.20;;;5.70;99.90;;;;;;5036029;28;20203;-86
2022/01/15 01:33:26;;;;;;;56.07;36.03;;;5.70;99.90;;;;;;5035727;28;20227;-82
2022/01/15 01:36:08;;;;;;;55.90;36.43;;;5.90;99.90;;;;;;5035766;28;20195;-87
2022/01/15 01:38:43;;;;;;;60.70;36.17;;;5.90;99.90;;;;;;5035869;28;20299;-85
2022/01/15 01:41:15;;;;;;;56.43;36.57;;;6.00;99.90;;;;;;5043993;28;20712;-85
2022/01/15 01:43:47;;;;;;;58.77;37.47;;;6.00;99.90;;;;;;5042534;28;20219;-84
2022/01/15 01:46:32;;;;;;;53.47;36.27;;;5.90;99.90;;;;;;5035376;28;20211;-84
2022/01/15 01:49:15;;;;;;;52.70;34.13;;;5.90;99.90;;;;;;5035507;28;20195;-84
2022/01/15 01:51:47;;;;;;;59.03;36.77;;;5.80;99.90;;;;;;5035334;28;20203;-84
2022/01/15 01:54:16;;;;;;;59.77;36.57;;;5.70;99.90;;;;;;5035300;28;20231;-85
2022/01/15 01:56:57;;;;;;;58.03;35.67;;;5.80;99.90;;;;;;5036183;28;20238;-86
2022/01/15 01:59:25;;;;;;;60.93;35.63;;;5.60;99.90;;;;;;5035181;28;20230;-85
2022/01/15 02:01:53;;;;;;;61.50;37.40;;;5.60;99.90;;;;;;5035659;28;20203;-85
2022/01/15 02:04:26;;;;;;;57.37;35.93;;;5.70;99.90;;;;;;5033144;28;20573;-84
2022/01/15 02:06:56;;;;;;;59.67;35.90;;;5.80;99.90;;;;;;5017411;28;20210;-85
2022/01/15 02:09:25;;;;;;;53.87;35.60;;;5.60;99.90;;;;;;5034851;28;20197;-84
2022/01/15 02:12:00;;;;;;;56.53;35.07;;;5.70;99.90;;;;;;5035223;28;20279;-86
2022/01/15 02:14:27;;;;;;;60.77;37.33;;;5.80;99.90;;;;;;5035177;28;20230;-84
2022/01/15 02:16:54;;;;;;;59.47;36.27;;;5.80;99.90;;;;;;5035341;28;20221;-84
2022/01/15 02:19:22;;;;;;;55.87;35.33;;;5.80;99.90;;;;;;5035395;28;20203;-84
2022/01/15 02:24:38;;;;;;;62.03;36.57;;;5.40;99.90;;;;;;5035207;28;20222;-84
2022/01/15 02:27:05;;;;;;;55.40;35.40;;;5.60;99.90;;;;;;5034206;28;20207;-85
2022/01/15 02:29:32;;;;;;;62.30;37.60;;;5.50;99.90;;;;;;5034588;28;20203;-84
2022/01/15 02:31:59;;;;;;;60.53;37.47;;;5.50;99.90;;;;;;5034538;28;20657;-85
2022/01/15 02:34:25;;;;;;;60.07;37.33;;;5.60;99.90;;;;;;5034264;28;20245;-84
2022/01/15 02:36:54;;;;;;;56.73;36.37;;;5.70;99.90;;;;;;5034741;28;20191;-83
2022/01/15 02:39:20;;;;;;;59.33;36.97;;;5.60;99.90;;;;;;5034608;28;20694;-84
2022/01/15 02:41:47;;;;;;;61.37;36.53;;;5.60;99.90;;;;;;5033365;28;20223;-86
2022/01/15 02:44:17;;;;;;;60.43;38.10;;;5.40;99.90;;;;;;5035722;28;20206;-83
2022/01/15 02:49:29;;;;;;;62.37;37.37;;;5.40;99.90;;;;;;5036491;28;20549;-85
2022/01/15 02:51:57;;;;;;;61.40;38.33;;;5.10;99.90;;;;;;5037275;28;20207;-85
2022/01/15 02:54:25;;;;;;;58.10;38.37;;;5.20;99.90;;;;;;5040572;28;20222;-86
2022/01/15 02:56:55;;;;;;;58.00;39.63;;;5.30;99.90;;;;;;5039417;28;20645;-85
2022/01/15 02:59:25;;;;;;;60.93;38.47;;;5.50;99.90;;;;;;5038321;28;20269;-86
2022/01/15 03:01:55;;;;;;;55.87;36.70;;;5.50;99.90;;;;;;5019669;28;20250;-85
2022/01/15 03:04:23;;;;;;;58.80;36.10;;;5.60;99.90;;;;;;5019093;28;20204;-86
2022/01/15 03:06:50;;;;;;;62.67;47.33;;;5.60;99.90;;;;;;5035042;28;20427;-86
2022/01/15 03:09:21;;;;;;;62.63;38.77;;;5.50;99.90;;;;;;5034511;28;20187;-86
2022/01/15 03:11:51;;;;;;;58.40;38.53;;;5.20;99.90;;;;;;5034162;28;20213;-87
2022/01/15 03:14:20;;;;;;;61.07;36.83;;;5.10;99.90;;;;;;5033562;28;20254;-86
2022/01/15 03:16:46;;;;;;;62.33;38.37;;;5.20;99.90;;;;;;5033977;28;20210;-86
2022/01/15 03:19:13;;;;;;;62.33;36.90;;;5.30;99.90;;;;;;5034036;28;20207;-86
2022/01/15 03:21:46;;;;;;;57.13;34.80;;;5.20;99.90;;;;;;5033506;28;20643;-86
2022/01/15 03:24:15;;;;;;;58.03;37.97;;;5.20;99.90;;;;;;5033469;28;20207;-87
2022/01/15 03:26:47;;;;;;;62.60;36.97;;;5.40;99.90;;;;;;5034107;28;20574;-85
2022/01/15 03:29:14;;;;;;;65.10;37.07;;;5.30;99.90;;;;;;5033798;28;20302;-85
2022/01/15 03:31:41;;;;;;;58.63;35.20;;;5.40;99.90;;;;;;5033574;28;20211;-86
2022/01/15 03:34:09;;;;;;;57.07;37.10;;;5.40;99.90;;;;;;5033653;28;20716;-84
2022/01/15 03:36:39;;;;;;;58.43;37.73;;;5.20;99.90;;;;;;5033904;28;20191;-84
2022/01/15 03:39:08;;;;;;;60.27;38.83;;;5.10;99.90;;;;;;5033626;28;20234;-88
2022/01/15 03:41:37;;;;;;;61.60;39.17;;;5.20;99.90;;;;;;5033236;28;20199;-83
2022/01/15 03:44:07;;;;;;;55.13;38.17;;;5.30;99.90;;;;;;5033572;28;20560;-85
2022/01/15 03:46:35;;;;;;;68.20;40.30;;;5.40;99.90;;;;;;5033076;28;20214;-85
2022/01/15 03:49:08;;;;;;;59.53;38.63;;;5.50;99.90;;;;;;5033785;28;20199;-86
2022/01/15 03:51:36;;;;;;;69.97;53.45;;;5.40;99.90;;;;;;5032444;28;20445;-85
2022/01/15 03:54:05;;;;;;;64.17;43.07;;;5.70;99.90;;;;;;5033450;28;20230;-85
2022/01/15 03:56:38;;;;;;;67.87;42.30;;;5.80;99.90;;;;;;5033261;28;20211;-85
2022/01/15 03:59:10;;;;;;;66.57;40.17;;;5.80;99.90;;;;;;5033387;28;20217;-87
2022/01/15 04:01:43;;;;;;;65.50;39.90;;;5.90;99.90;;;;;;5033289;28;20191;-85
2022/01/15 04:04:11;;;;;;;61.87;41.03;;;5.80;99.90;;;;;;5033294;28;20203;-85
2022/01/15 04:06:41;;;;;;;64.93;40.30;;;5.70;99.90;;;;;;5033322;28;20223;-86
2022/01/15 04:09:12;;;;;;;63.67;40.70;;;5.50;99.90;;;;;;5033121;28;20202;-84
2022/01/15 04:11:40;;;;;;;73.07;43.13;;;5.50;99.90;;;;;;5033046;28;20210;-83
2022/01/15 04:14:14;;;;;;;66.07;40.30;;;5.50;99.90;;;;;;5033124;28;20215;-85
2022/01/15 04:16:41;;;;;;;65.33;40.33;;;5.50;99.90;;;;;;5032797;28;20210;-85
2022/01/15 04:19:09;;;;;;;65.60;41.97;;;5.40;99.90;;;;;;5033292;28;20211;-86
2022/01/15 04:21:37;;;;;;;61.37;40.73;;;5.50;99.90;;;;;;5033169;28;20739;-87
2022/01/15 04:24:06;;;;;;;62.37;41.17;;;5.40;99.90;;;;;;5032737;28;20659;-84
2022/01/15 04:26:34;;;;;;;64.97;42.33;;;5.30;99.90;;;;;;5035021;28;20229;-84
2022/01/15 04:29:06;;;;;;;66.47;41.80;;;5.10;99.90;;;;;;5037045;28;20657;-83
2022/01/15 04:31:47;;;;;;;70.13;44.20;;;5.10;99.90;;;;;;5037248;28;20191;-85
2022/01/15 04:34:16;;;;;;;66.20;41.17;;;5.20;99.90;;;;;;5036899;28;20284;-85
2022/01/15 04:36:44;;;;;;;70.00;44.60;;;5.40;99.90;;;;;;5036897;28;20439;-84
2022/01/15 04:39:17;;;;;;;65.10;42.37;;;5.30;99.90;;;;;;5037452;28;20215;-85
2022/01/15 04:41:45;;;;;;;64.17;40.93;;;5.20;99.90;;;;;;5036999;28;20198;-84
2022/01/15 04:44:18;;;;;;;68.27;43.27;;;5.10;99.90;;;;;;5036741;28;20208;-86
2022/01/15 04:46:52;;;;;;;64.60;41.53;;;4.70;99.90;;;;;;5037207;28;20199;-86
2022/01/15 04:49:20;;;;;;;74.80;43.60;;;4.70;99.90;;;;;;5036985;28;20203;-83
2022/01/15 04:51:48;;;;;;;68.03;44.40;;;4.70;99.90;;;;;;5037150;28;20199;-86
2022/01/15 04:54:15;;;;;;;72.30;42.73;;;4.80;99.90;;;;;;5037020;28;20222;-87
2022/01/15 04:56:48;;;;;;;75.70;43.57;;;4.80;99.90;;;;;;5036769;28;20192;-83
2022/01/15 04:59:14;;;;;;;67.93;43.37;;;4.80;99.90;;;;;;5036588;28;20504;-87
2022/01/15 05:01:43;;;;;;;75.93;49.47;;;4.80;99.90;;;;;;5018866;28;20433;-80
2022/01/15 05:04:14;;;;;;;73.67;46.03;;;4.90;99.90;;;;;;5036379;28;20203;-83
2022/01/15 05:06:40;;;;;;;75.57;45.53;;;5.00;99.90;;;;;;5036565;28;20210;-84
2022/01/15 05:09:07;;;;;;;74.63;44.67;;;5.00;99.90;;;;;;5036563;28;20187;-85
2022/01/15 05:11:46;;;;;;;77.20;46.67;;;4.80;99.90;;;;;;5036753;28;20199;-85
2022/01/15 05:14:19;;;;;;;74.87;45.53;;;4.90;99.90;;;;;;5036342;28;20218;-85
2022/01/15 05:16:48;;;;;;;78.57;44.73;;;4.60;99.90;;;;;;5036181;28;20211;-86
2022/01/15 05:19:19;;;;;;;80.20;46.20;;;4.50;99.90;;;;;;5018859;28;20214;-82
2022/01/15 05:21:55;;;;;;;85.50;46.83;;;4.50;99.90;;;;;;5036125;28;20213;-83
2022/01/15 05:24:26;;;;;;;82.17;47.33;;;4.50;99.90;;;;;;5036386;28;20536;-85
2022/01/15 05:26:56;;;;;;;85.95;58.22;;;4.70;99.90;;;;;;5035890;28;20783;-87
2022/01/15 05:29:26;;;;;;;80.07;48.70;;;4.90;99.90;;;;;;5035865;28;20210;-86
2022/01/15 05:31:58;;;;;;;81.87;46.60;;;4.90;99.90;;;;;;5036054;28;20213;-85
2022/01/15 05:34:33;;;;;;;78.90;46.77;;;5.00;99.90;;;;;;5035923;28;20273;-84
2022/01/15 05:37:01;;;;;;;82.57;47.20;;;5.10;99.90;;;;;;5035900;28;20202;-84
2022/01/15 05:39:28;;;;;;;85.37;47.83;;;5.00;99.90;;;;;;5035560;28;20191;-87
2022/01/15 05:41:57;;;;;;;87.87;47.70;;;4.90;99.90;;;;;;5035058;28;20195;-84
2022/01/15 05:44:27;;;;;;;88.73;46.70;;;4.90;99.90;;;;;;5035882;28;20210;-85
2022/01/15 05:46:59;;;;;;;84.10;46.17;;;4.90;99.90;;;;;;5036038;28;20204;-85
2022/01/15 05:49:34;;;;;;;87.97;48.20;;;4.80;99.90;;;;;;5035816;28;20202;-84
2022/01/15 05:52:07;;;;;;;88.37;48.53;;;4.60;99.90;;;;;;5035834;28;20194;-84
2022/01/15 05:54:35;;;;;;;87.30;47.03;;;4.80;99.90;;;;;;5035551;28;20208;-85
2022/01/15 05:57:03;;;;;;;85.07;46.13;;;4.90;99.90;;;;;;5035254;28;20196;-86
2022/01/15 05:59:30;;;;;;;91.03;46.20;;;5.00;99.90;;;;;;5034935;28;20215;-84
2022/01/15 06:02:04;;;;;;;87.47;46.73;;;5.00;99.90;;;;;;5050174;28;20214;-86
2022/01/15 06:04:49;;;;;;;87.33;47.07;;;5.10;99.90;;;;;;5055167;28;20199;-84
2022/01/15 06:07:17;;;;;;;82.70;45.70;;;5.00;99.90;;;;;;5054882;28;20199;-84
2022/01/15 06:09:45;;;;;;;95.20;46.10;;;5.00;99.90;;;;;;5055215;28;20202;-86
2022/01/15 06:12:12;;;;;;;92.37;48.03;;;5.00;99.90;;;;;;5054847;28;20191;-84
2022/01/15 06:14:39;;;;;;;90.60;45.30;;;5.10;99.90;;;;;;5055377;28;20215;-84
2022/01/15 06:17:09;;;;;;;92.67;46.60;;;4.90;99.90;;;;;;5037755;28;20226;-85
2022/01/15 06:19:37;;;;;;;94.38;57.97;;;4.80;99.90;;;;;;5054311;28;20917;-81
2022/01/15 06:22:07;;;;;;;96.83;49.60;;;4.90;99.90;;;;;;5055040;28;20260;-82
2022/01/15 06:24:36;;;;;;;91.60;48.53;;;4.90;99.90;;;;;;5054830;28;20536;-85
2022/01/15 06:27:05;;;;;;;90.33;46.53;;;4.40;99.90;;;;;;5054365;28;20199;-84
2022/01/15 06:29:34;;;;;;;88.53;45.43;;;4.40;99.90;;;;;;5055142;28;20278;-88
2022/01/15 06:32:02;;;;;;;86.37;46.40;;;4.50;99.90;;;;;;5054649;28;20197;-86
2022/01/15 06:34:30;;;;;;;89.10;46.17;;;4.50;99.90;;;;;;5036988;28;20240;-84
2022/01/15 06:36:58;;;;;;;87.90;46.13;;;4.60;99.90;;;;;;5054724;28;20210;-85
2022/01/15 06:39:30;;;;;;;90.23;46.20;;;4.70;99.90;;;;;;5054412;28;20231;-84
2022/01/15 06:42:00;;;;;;;89.23;44.20;;;4.70;99.90;;;;;;5036689;28;20210;-86
2022/01/15 06:44:28;;;;;;;92.73;45.30;;;4.70;99.90;;;;;;5054479;28;20214;-83
2022/01/15 06:46:56;;;;;;;98.43;56.45;;;4.60;99.90;;;;;;5054003;28;20432;-85
2022/01/15 06:49:23;;;;;;;91.57;46.53;;;4.60;99.90;;;;;;5053351;28;20211;-85
2022/01/15 06:51:51;;;;;;;83.37;42.70;;;4.70;99.90;;;;;;5054350;28;20197;-85
2022/01/15 06:54:18;;;;;;;90.90;43.07;;;4.70;99.90;;;;;;5054342;28;20230;-82
2022/01/15 06:56:49;;;;;;;91.27;44.70;;;4.60;99.90;;;;;;5054431;28;20582;-84
2022/01/15 06:59:22;;;;;;;96.90;45.80;;;4.70;99.90;;;;;;5054367;28;20650;-86
2022/01/15 07:01:50;;;;;;;89.50;44.90;;;4.70;99.90;;;;;;5054481;28;20195;-85
2022/01/15 07:04:20;;;;;;;88.70;46.30;;;4.70;99.90;;;;;;5054508;28;20194;-80
2022/01/15 07:06:49;;;;;;;94.50;45.33;;;4.70;99.90;;;;;;5053656;28;20209;-81
2022/01/15 07:09:18;;;;;;;98.60;45.43;;;4.70;99.90;;;;;;5053662;28;20194;-81
2022/01/15 07:11:45;;;;;;;91.90;43.77;;;4.70;99.90;;;;;;5053497;28;20202;-81
2022/01/15 07:14:13;;;;;;;89.07;43.90;;;4.60;99.90;;;;;;5053418;28;20580;-84
2022/01/15 07:16:40;;;;;;;94.77;43.77;;;4.60;99.90;;;;;;5053232;28;20207;-82
2022/01/15 07:19:13;;;;;;;92.57;45.23;;;4.20;99.90;;;;;;5053275;28;20203;-81
2022/01/15 07:21:39;;;;;;;88.67;43.10;;;4.10;99.90;;;;;;5054126;28;20431;-83
2022/01/15 07:24:08;;;;;;;93.33;44.57;;;3.90;99.90;;;;;;5053272;28;20212;-85
2022/01/15 07:26:41;;;;;;;94.53;43.30;;;4.00;99.90;;;;;;5053374;28;20206;-82
2022/01/15 07:29:15;;;;;;;95.20;42.37;;;3.80;99.90;;;;;;5053998;28;20861;-81
2022/01/15 07:31:46;;;;;;;90.83;43.17;;;3.70;99.90;;;;;;5053887;28;20213;-81
2022/01/15 07:34:13;;;;;;;95.47;42.30;;;4.00;99.90;;;;;;5053512;28;20642;-84
2022/01/15 07:36:40;;;;;;;98.47;44.43;;;4.10;99.90;;;;;;5053714;28;20443;-79
2022/01/15 07:39:09;;;;;;;97.00;44.77;;;4.30;99.90;;;;;;5053217;28;20233;-83
2022/01/15 07:41:36;;;;;;;99.07;45.13;;;4.10;99.90;;;;;;5054098;28;20458;-84
2022/01/15 07:44:06;;;;;;;97.30;42.80;;;4.10;99.90;;;;;;5053684;28;20466;-86
2022/01/15 07:46:34;;;;;;;95.87;43.03;;;4.00;99.90;;;;;;5053717;28;20997;-85
2022/01/15 07:49:03;;;;;;;107.67;45.97;;;4.10;99.90;;;;;;5053614;28;20898;-84
2022/01/15 07:51:31;;;;;;;100.90;43.27;;;4.20;99.90;;;;;;5053466;28;20435;-82
2022/01/15 07:53:58;;;;;;;95.60;42.80;;;4.10;99.90;;;;;;5052923;28;20435;-82
2022/01/15 07:56:26;;;;;;;101.40;44.00;;;4.20;99.90;;;;;;5052959;28;20209;-84
2022/01/15 07:58:54;;;;;;;107.53;45.13;;;4.30;99.90;;;;;;5052834;28;20466;-83
2022/01/15 08:01:22;;;;;;;97.60;43.43;;;4.30;99.90;;;;;;5052764;28;20202;-84
2022/01/15 08:03:50;;;;;;;95.10;43.13;;;4.30;99.90;;;;;;5053633;28;20202;-83
2022/01/15 08:06:20;;;;;;;104.30;43.70;;;4.40;99.90;;;;;;5053028;28;20451;-83
2022/01/15 08:08:46;;;;;;;92.00;40.13;;;4.40;99.90;;;;;;5052859;28;20561;-83
2022/01/15 08:11:14;;;;;;;100.83;41.40;;;4.40;99.90;;;;;;5050849;28;20210;-85
2022/01/15 08:13:41;;;;;;;102.93;42.60;;;4.30;99.90;;;;;;5034409;28;20673;-85
2022/01/15 08:16:09;;;;;;;96.47;42.33;;;4.00;99.90;;;;;;5051673;28;20475;-86
2022/01/15 08:18:36;;;;;;;98.07;41.83;;;4.00;99.90;;;;;;5052772;28;20294;-85
2022/01/15 08:21:05;;;;;;;95.00;40.77;;;4.00;99.90;;;;;;5053091;28;20466;-85
2022/01/15 08:23:34;;;;;;;93.53;41.40;;;4.00;99.90;;;;;;5053314;28;20469;-86
2022/01/15 08:26:00;;;;;;;87.00;38.17;;;4.10;99.90;;;;;;5053308;28;20440;-86
2022/01/15 08:28:28;;;;;;;86.03;37.67;;;4.10;99.90;;;;;;5053418;28;20463;-83
2022/01/15 08:30:57;;;;;;;93.17;38.80;;;3.90;99.90;;;;;;5053175;28;20209;-86
2022/01/15 08:33:25;;;;;;;87.37;37.97;;;4.00;99.90;;;;;;5035495;28;20444;-86
2022/01/15 08:35:55;;;;;;;91.47;37.33;;;4.00;99.90;;;;;;5053522;28;20476;-83
2022/01/15 08:38:29;;;;;;;87.43;37.00;;;4.10;99.90;;;;;;5053322;28;20486;-83
2022/01/15 08:40:58;;;;;;;92.97;38.80;;;4.10;99.90;;;;;;5053585;28;20447;-84
2022/01/15 08:43:31;;;;;;;90.10;40.50;;;4.10;99.90;;;;;;5053260;28;20442;-84
2022/01/15 08:46:04;;;;;;;92.20;38.43;;;4.00;99.90;;;;;;5053381;28;20487;-82
2022/01/15 08:48:37;;;;;;;107.68;47.40;;;3.90;99.90;;;;;;5052946;28;20436;-83
2022/01/15 08:51:05;;;;;;;91.23;40.00;;;3.70;99.90;;;;;;5035436;28;20245;-83
2022/01/15 08:53:33;;;;;;;93.90;41.30;;;3.90;99.90;;;;;;5052903;28;20430;-84
2022/01/15 08:56:04;;;;;;;92.17;39.20;;;4.00;99.90;;;;;;5052877;28;20479;-79
2022/01/15 08:58:32;;;;;;;96.20;41.13;;;4.10;99.90;;;;;;5052371;28;20565;-83
2022/01/15 09:01:10;;;;;;;101.47;41.13;;;4.20;99.90;;;;;;5050344;28;20443;-86
2022/01/15 09:03:38;;;;;;;101.93;41.63;;;4.30;99.90;;;;;;5052894;28;20452;-86
2022/01/15 09:06:05;;;;;;;91.63;39.33;;;4.40;99.90;;;;;;5052609;28;20642;-87
2022/01/15 09:08:36;;;;;;;91.17;39.47;;;4.40;99.90;;;;;;5052328;28;20666;-85
2022/01/15 09:11:11;;;;;;;91.30;39.37;;;4.50;99.90;;;;;;5052985;28;20190;-84
2022/01/15 09:13:38;;;;;;;89.87;37.90;;;4.50;99.90;;;;;;5053804;28;20251;-85
2022/01/15 09:16:07;;;;;;;84.23;37.70;;;4.50;99.90;;;;;;5056478;28;20237;-86
2022/01/15 09:18:35;;;;;;;84.73;37.87;;;4.50;99.90;;;;;;5039485;28;20186;-84
2022/01/15 09:21:04;;;;;;;94.13;38.70;;;4.70;99.90;;;;;;5056164;28;20193;-87
2022/01/15 09:23:33;;;;;;;83.30;37.67;;;4.70;99.90;;;;;;5056033;28;20206;-86
2022/01/15 09:26:02;;;;;;;80.77;35.90;;;4.50;99.90;;;;;;5038838;28;20237;-86
2022/01/15 09:31:18;;;;;;;78.10;35.10;;;4.60;99.90;;;;;;5056246;28;20558;-85
2022/01/15 09:33:48;;;;;;;76.27;36.93;;;4.60;99.90;;;;;;5056073;28;20236;-86
2022/01/15 09:36:16;;;;;;;79.10;36.43;;;4.60;99.90;;;;;;5055396;28;20232;-86
2022/01/15 09:38:43;;;;;;;79.13;35.23;;;4.70;99.90;;;;;;5055676;28;20230;-86
2022/01/15 09:41:11;;;;;;;70.40;35.00;;;4.40;99.90;;;;;;5043646;28;20919;-83
2022/01/15 09:43:41;;;;;;;75.20;35.87;;;4.30;99.90;;;;;;5055004;28;20218;-83
2022/01/15 09:46:08;;;;;;;72.37;34.80;;;4.40;99.90;;;;;;5054130;28;20194;-78
2022/01/15 09:48:39;;;;;;;70.43;33.23;;;4.60;99.90;;;;;;5051520;28;20187;-82
2022/01/15 09:51:06;;;;;;;59.33;30.47;;;4.50;99.90;;;;;;5054330;28;20191;-82
2022/01/15 09:53:35;;;;;;;61.25;33.65;;;4.30;99.90;;;;;;5054166;28;20433;-83
2022/01/15 09:56:09;;;;;;;60.27;32.13;;;4.10;99.90;;;;;;5055964;28;20223;-86
2022/01/15 09:58:38;;;;;;;55.03;30.27;;;4.20;99.90;;;;;;5055562;28;20217;-84
2022/01/15 10:01:06;;;;;;;56.00;29.67;;;4.20;99.90;;;;;;5055441;28;20191;-82
2022/01/15 10:03:33;;;;;;;56.30;30.80;;;4.10;99.90;;;;;;5035779;28;20716;-83
2022/01/15 10:06:04;;;;;;;58.70;29.93;;;4.00;99.90;;;;;;5054275;28;20210;-82
2022/01/15 10:08:37;;;;;;;55.07;30.33;;;4.00;99.90;;;;;;5053807;28;20213;-90
2022/01/15 10:11:11;;;;;;;58.10;30.87;;;4.10;99.90;;;;;;5052376;28;20681;-84
2022/01/15 10:13:44;;;;;;;58.33;31.57;;;4.10;99.90;;;;;;5053739;28;20206;-85
2022/01/15 10:16:18;;;;;;;58.80;32.20;;;4.20;99.90;;;;;;5054637;28;20661;-84
2022/01/15 10:18:47;;;;;;;60.77;31.37;;;4.40;99.90;;;;;;5053728;28;20210;-85
2022/01/15 10:21:17;;;;;;;55.80;30.70;;;4.30;99.90;;;;;;5054333;28;20195;-84
2022/01/15 10:23:51;;;;;;;58.00;32.23;;;4.40;99.90;;;;;;5053772;28;20202;-84
2022/01/15 10:26:20;;;;;;;59.27;32.00;;;4.60;99.90;;;;;;5054417;28;20206;-84
2022/01/15 10:28:58;;;;;;;63.57;34.07;;;4.30;99.90;;;;;;5051820;28;20290;-83
2022/01/15 10:31:29;;;;;;;62.37;32.73;;;4.50;99.90;;;;;;5053364;28;20618;-83
2022/01/15 10:33:59;;;;;;;57.10;31.67;;;4.70;99.90;;;;;;5054157;28;20290;-80
2022/01/15 10:36:31;;;;;;;55.40;30.93;;;4.80;99.90;;;;;;5053941;28;20230;-83
2022/01/15 10:39:14;;;;;;;53.50;30.67;;;4.60;99.90;;;;;;5054035;28;20226;-82
2022/01/15 10:41:41;;;;;;;53.50;29.53;;;4.50;99.90;;;;;;5053674;28;20218;-85
2022/01/15 10:44:32;;;;;;;52.83;29.03;;;4.50;99.90;;;;;;5054038;28;20209;-84
2022/01/15 10:47:08;;;;;;;51.13;29.27;;;4.50;99.90;;;;;;5036005;28;20218;-85
2022/01/15 10:49:38;;;;;;;49.17;27.80;;;4.60;99.90;;;;;;5054415;28;20187;-86
2022/01/15 10:52:14;;;;;;;54.27;30.53;;;4.50;99.90;;;;;;5054120;28;20633;-86
2022/01/15 10:54:54;;;;;;;48.87;28.40;;;4.40;99.90;;;;;;5054047;28;20632;-87
2022/01/15 10:57:23;;;;;;;43.30;26.47;;;4.10;99.90;;;;;;5053877;28;20205;-86
2022/01/15 10:59:58;;;;;;;43.17;25.37;;;4.00;99.90;;;;;;5053856;28;20202;-85
2022/01/15 11:02:28;;;;;;;45.30;26.73;;;3.70;99.90;;;;;;5052687;28;20428;-88
2022/01/15 11:04:57;;;;;;;46.80;28.03;;;3.60;99.90;;;;;;5046068;28;20201;-83
2022/01/15 11:07:35;;;;;;;47.40;27.90;;;3.80;99.90;;;;;;5054002;28;20450;-80
2022/01/15 11:10:04;;;;;;;50.13;28.60;;;3.80;99.90;;;;;;5034609;28;20607;-81
2022/01/15 11:12:33;;;;;;;45.03;26.93;;;4.00;99.90;;;;;;5053146;28;20244;-85
2022/01/15 11:15:00;;;;;;;49.07;28.87;;;4.20;99.90;;;;;;5047178;28;20688;-84
2022/01/15 11:17:30;;;;;;;46.00;28.90;;;4.50;99.90;;;;;;5052157;28;20293;-81
2022/01/15 11:19:59;;;;;;;46.57;27.77;;;4.50;99.90;;;;;;5053302;28;20206;-84
2022/01/15 11:22:27;;;;;;;41.17;25.27;;;4.60;99.90;;;;;;5053511;28;20566;-83
2022/01/15 11:24:55;;;;;;;39.10;24.50;;;4.60;99.90;;;;;;5053214;28;20190;-83
2022/01/15 11:27:22;;;;;;;34.90;23.87;;;4.80;99.90;;;;;;5036944;28;20203;-82
2022/01/15 11:29:54;;;;;;;35.50;23.37;;;4.80;99.90;;;;;;5015098;28;20207;-82
2022/01/15 11:32:22;;;;;;;34.23;23.03;;;4.90;99.90;;;;;;5032971;28;20666;-81
2022/01/15 11:35:05;;;;;;;34.07;24.40;;;4.70;99.90;;;;;;5032841;28;20210;-80
2022/01/15 11:37:46;;;;;;;41.60;32.13;;;4.60;99.90;;;;;;5031907;28;20443;-80
2022/01/15 11:40:43;;;;;;;38.73;27.63;;;4.50;99.90;;;;;;5032940;28;20187;-84
2022/01/15 11:43:45;;;;;;;35.17;23.47;;;4.50;99.90;;;;;;5033482;28;20253;-83
2022/01/15 11:46:32;;;;;;;34.90;24.27;;;4.60;99.90;;;;;;5032945;28;20285;-84
2022/01/15 11:49:34;;;;;;;34.33;23.33;;;4.50;99.90;;;;;;5034982;28;20191;-85
2022/01/15 11:52:34;;;;;;;32.73;22.87;;;4.40;99.90;;;;;;5034319;28;20221;-83
2022/01/15 11:55:24;;;;;;;36.73;23.67;;;4.40;99.90;;;;;;5033180;28;20310;-84
2022/01/15 11:57:58;;;;;;;34.63;24.10;;;4.50;99.90;;;;;;5033456;28;20219;-88
2022/01/15 12:00:44;;;;;;;32.87;22.87;;;4.50;99.90;;;;;;5032907;28;20198;-86
2022/01/15 12:03:14;;;;;;;36.17;23.83;;;4.50;99.90;;;;;;5033513;28;20203;-85
2022/01/15 12:05:47;;;;;;;36.30;24.53;;;4.60;99.90;;;;;;5033151;28;20249;-85
2022/01/15 12:08:32;;;;;;;35.03;29.52;;;4.70;99.90;;;;;;5032264;28;20435;-85
2022/01/15 12:11:03;;;;;;;31.90;22.73;;;4.80;99.90;;;;;;5033704;28;20225;-86
2022/01/15 12:13:48;;;;;;;31.40;22.77;;;4.90;99.90;;;;;;5033176;28;20257;-86
2022/01/15 12:16:28;;;;;;;30.30;21.53;;;4.90;99.90;;;;;;5033267;28;20227;-86
2022/01/15 12:18:59;;;;;;;31.53;20.73;;;4.80;99.90;;;;;;5016316;28;20211;-85
2022/01/15 12:21:59;;;;;;;30.20;21.20;;;4.80;99.90;;;;;;5033984;28;20591;-86
2022/01/15 12:24:50;;;;;;;29.67;22.03;;;4.80;99.90;;;;;;5033301;28;20203;-85
2022/01/15 12:27:28;;;;;;;29.03;21.00;;;4.80;99.90;;;;;;5033366;28;20208;-81
2022/01/15 12:30:02;;;;;;;31.50;21.10;;;4.90;99.90;;;;;;5032798;28;20231;-86
2022/01/15 12:32:38;;;;;;;28.40;21.50;;;4.80;99.90;;;;;;5033149;28;20705;-86
2022/01/15 12:35:10;;;;;;;28.63;22.10;;;4.70;99.90;;;;;;5032890;28;20190;-82
2022/01/15 12:37:51;;;;;;;30.93;22.60;;;4.60;99.90;;;;;;5016841;28;20242;-90
2022/01/15 12:40:31;;;;;;;27.37;20.87;;;4.70;99.90;;;;;;5034371;28;20219;-90
2022/01/15 12:43:02;;;;;;;29.50;21.50;;;4.80;99.90;;;;;;5033554;28;20203;-86
2022/01/15 12:45:29;;;;;;;29.73;21.30;;;4.90;99.90;;;;;;5033006;28;20666;-84
2022/01/15 12:48:00;;;;;;;29.93;22.27;;;4.80;99.90;;;;;;5053266;28;20642;-85
2022/01/15 12:50:43;;;;;;;31.90;22.17;;;4.80;99.90;;;;;;5056746;28;20210;-84
2022/01/15 12:53:17;;;;;;;26.50;20.27;;;4.60;99.90;;;;;;5053882;28;20206;-82
2022/01/15 12:55:46;;;;;;;26.30;20.70;;;4.50;99.90;;;;;;5056630;28;20256;-82
2022/01/15 12:58:16;;;;;;;35.03;22.83;;;4.60;99.90;;;;;;5056033;28;20221;-84
2022/01/15 13:00:44;;;;;;;32.37;23.03;;;4.60;99.90;;;;;;5056622;28;20205;-84
2022/01/15 13:03:12;;;;;;;30.07;22.80;;;4.60;99.90;;;;;;5056481;28;20285;-79
2022/01/15 13:05:41;;;;;;;27.53;20.30;;;4.70;99.90;;;;;;5056593;28;20214;-81
2022/01/15 13:08:12;;;;;;;25.63;19.97;;;4.70;99.90;;;;;;5056399;28;20207;-79
2022/01/15 13:10:47;;;;;;;24.37;19.67;;;4.80;99.90;;;;;;5055709;28;20286;-81